KSSF

Stinson Municipal Airport

San Antonio, Texas, USA
METAR KSSF 230853Z AUTO 00000KT 9SM RA BKN041 BKN120 12/08 A3013 RMK AO2 SLP200 P0004 60007 T01170083 56015 $
Observed Flight Rules
Oct-23 @ 08:53 UTC (46 minutes ago) Visual Flight Rules
Visibility Clouds Conditions
9 miles
  • Broken at 4,100' AGL
  • Broken at 12,000' AGL
  • Rain
Temperatures Readings Precipitation
Current 12°C / 54°F
Dewpoint 8°C / 46°F
Humidity 77%
Altimeter 30.13" Hg
Pressure 1020 hPa
Elevation 176
Current Rain 0.04
METAR KSSF 230853Z AUTO 00000KT 9SM RA BKN041 BKN120 12/08 A3013 RMK AO2 SLP200 P0004 60007 T01170083 56015 $
Observed Flight Rules
Oct-23 @ 08:53 UTC
(46 minutes ago)
VFR
Clouds
  • Broken at 4,100' AGL
  • Broken at 12,000' AGL
Conditions
  • Rain
Temperature Dewpoint
12°C / 54°F 8°C / 46°F
Humidity Altimeter Pressure
77% 30.13" Hg 1020 hPa
Current Rain
0.04